sensor_id;sensor_type;location;lat;lon;timestamp;P1;durP1;ratioP1;P2;durP2;ratioP2
22737;SDS011;11536;50.860;4.286;2022-09-29T00:01:26;9.45;;;5.10;;
22737;SDS011;11536;50.860;4.286;2022-09-29T00:03:52;7.65;;;4.90;;
22737;SDS011;11536;50.860;4.286;2022-09-29T00:06:17;11.07;;;5.35;;
22737;SDS011;11536;50.860;4.286;2022-09-29T00:08:43;11.35;;;5.75;;
22737;SDS011;11536;50.860;4.286;2022-09-29T00:11:11;11.80;;;5.20;;
22737;SDS011;11536;50.860;4.286;2022-09-29T00:13:38;11.20;;;5.22;;
22737;SDS011;11536;50.860;4.286;2022-09-29T00:16:04;13.77;;;5.20;;
22737;SDS011;11536;50.860;4.286;2022-09-29T00:18:31;9.48;;;5.13;;
22737;SDS011;11536;50.860;4.286;2022-09-29T00:21:19;10.43;;;4.75;;
22737;SDS011;11536;50.860;4.286;2022-09-29T00:23:44;8.52;;;4.55;;
22737;SDS011;11536;50.860;4.286;2022-09-29T00:26:15;10.20;;;5.13;;
22737;SDS011;11536;50.860;4.286;2022-09-29T00:28:53;11.43;;;5.15;;
22737;SDS011;11536;50.860;4.286;2022-09-29T00:31:21;8.50;;;4.93;;
22737;SDS011;11536;50.860;4.286;2022-09-29T00:33:47;12.52;;;5.60;;
22737;SDS011;11536;50.860;4.286;2022-09-29T00:36:14;9.85;;;5.07;;
22737;SDS011;11536;50.860;4.286;2022-09-29T00:38:42;8.80;;;4.95;;
22737;SDS011;11536;50.860;4.286;2022-09-29T00:41:16;8.00;;;4.90;;
22737;SDS011;11536;50.860;4.286;2022-09-29T00:46:20;9.88;;;4.95;;
22737;SDS011;11536;50.860;4.286;2022-09-29T00:54:41;10.10;;;5.03;;
22737;SDS011;11536;50.860;4.286;2022-09-29T00:57:11;11.75;;;5.20;;
22737;SDS011;11536;50.860;4.286;2022-09-29T00:59:52;8.98;;;4.72;;
22737;SDS011;11536;50.860;4.286;2022-09-29T01:02:26;8.68;;;4.70;;
22737;SDS011;11536;50.860;4.286;2022-09-29T01:04:54;10.75;;;5.28;;
22737;SDS011;11536;50.860;4.286;2022-09-29T01:07:20;10.32;;;4.70;;
22737;SDS011;11536;50.860;4.286;2022-09-29T01:09:47;10.90;;;4.57;;
22737;SDS011;11536;50.860;4.286;2022-09-29T01:12:16;9.05;;;4.63;;
22737;SDS011;11536;50.860;4.286;2022-09-29T01:14:42;10.50;;;5.10;;
22737;SDS011;11536;50.860;4.286;2022-09-29T01:17:08;10.23;;;4.95;;
22737;SDS011;11536;50.860;4.286;2022-09-29T01:19:44;10.82;;;4.72;;
22737;SDS011;11536;50.860;4.286;2022-09-29T01:39:13;10.20;;;5.07;;
22737;SDS011;11536;50.860;4.286;2022-09-29T01:41:52;10.40;;;5.20;;
22737;SDS011;11536;50.860;4.286;2022-09-29T01:49:55;11.57;;;4.93;;
22737;SDS011;11536;50.860;4.286;2022-09-29T01:52:26;9.57;;;4.78;;
22737;SDS011;11536;50.860;4.286;2022-09-29T01:55:02;11.00;;;5.10;;
22737;SDS011;11536;50.860;4.286;2022-09-29T02:00:03;13.13;;;5.50;;
22737;SDS011;11536;50.860;4.286;2022-09-29T02:05:13;14.20;;;5.28;;
22737;SDS011;11536;50.860;4.286;2022-09-29T02:07:43;12.57;;;5.40;;
22737;SDS011;11536;50.860;4.286;2022-09-29T02:10:21;10.15;;;5.18;;
22737;SDS011;11536;50.860;4.286;2022-09-29T02:12:51;14.27;;;5.53;;
22737;SDS011;11536;50.860;4.286;2022-09-29T02:15:20;10.70;;;5.85;;
22737;SDS011;11536;50.860;4.286;2022-09-29T02:17:53;10.05;;;5.25;;
22737;SDS011;11536;50.860;4.286;2022-09-29T02:20:21;9.88;;;5.68;;
22737;SDS011;11536;50.860;4.286;2022-09-29T02:22:47;16.45;;;5.80;;
22737;SDS011;11536;50.860;4.286;2022-09-29T02:25:13;13.50;;;5.18;;
22737;SDS011;11536;50.860;4.286;2022-09-29T02:27:41;8.20;;;4.75;;
22737;SDS011;11536;50.860;4.286;2022-09-29T02:30:09;12.63;;;5.82;;
22737;SDS011;11536;50.860;4.286;2022-09-29T02:32:35;10.65;;;5.15;;
22737;SDS011;11536;50.860;4.286;2022-09-29T02:35:02;12.23;;;5.60;;
22737;SDS011;11536;50.860;4.286;2022-09-29T02:40:36;9.80;;;5.20;;
22737;SDS011;11536;50.860;4.286;2022-09-29T02:46:05;11.10;;;5.20;;
22737;SDS011;11536;50.860;4.286;2022-09-29T02:51:56;8.05;;;4.78;;
22737;SDS011;11536;50.860;4.286;2022-09-29T02:57:22;8.45;;;4.82;;
22737;SDS011;11536;50.860;4.286;2022-09-29T03:02:35;10.00;;;5.20;;
22737;SDS011;11536;50.860;4.286;2022-09-29T03:05:03;10.43;;;5.05;;
22737;SDS011;11536;50.860;4.286;2022-09-29T03:07:30;10.30;;;5.03;;
22737;SDS011;11536;50.860;4.286;2022-09-29T03:09:55;10.52;;;5.00;;
22737;SDS011;11536;50.860;4.286;2022-09-29T03:12:21;10.38;;;5.47;;
22737;SDS011;11536;50.860;4.286;2022-09-29T03:14:46;11.18;;;5.35;;
22737;SDS011;11536;50.860;4.286;2022-09-29T03:17:12;10.88;;;5.03;;
22737;SDS011;11536;50.860;4.286;2022-09-29T03:19:38;10.60;;;4.80;;
22737;SDS011;11536;50.860;4.286;2022-09-29T03:22:03;12.10;;;5.00;;
22737;SDS011;11536;50.860;4.286;2022-09-29T03:24:29;8.95;;;5.07;;
22737;SDS011;11536;50.860;4.286;2022-09-29T03:26:55;10.95;;;4.80;;
22737;SDS011;11536;50.860;4.286;2022-09-29T03:29:21;11.48;;;4.45;;
22737;SDS011;11536;50.860;4.286;2022-09-29T03:31:47;14.43;;;4.85;;
22737;SDS011;11536;50.860;4.286;2022-09-29T03:34:12;13.73;;;4.82;;
22737;SDS011;11536;50.860;4.286;2022-09-29T03:36:38;9.70;;;4.50;;
22737;SDS011;11536;50.860;4.286;2022-09-29T03:39:05;11.60;;;5.47;;
22737;SDS011;11536;50.860;4.286;2022-09-29T03:41:31;10.02;;;5.13;;
22737;SDS011;11536;50.860;4.286;2022-09-29T03:43:57;9.73;;;4.60;;
22737;SDS011;11536;50.860;4.286;2022-09-29T03:46:22;9.55;;;4.90;;
22737;SDS011;11536;50.860;4.286;2022-09-29T03:48:48;9.25;;;5.03;;
22737;SDS011;11536;50.860;4.286;2022-09-29T03:51:14;10.35;;;4.82;;
22737;SDS011;11536;50.860;4.286;2022-09-29T03:53:39;11.23;;;4.78;;
22737;SDS011;11536;50.860;4.286;2022-09-29T03:56:05;11.38;;;5.07;;
22737;SDS011;11536;50.860;4.286;2022-09-29T03:58:31;10.63;;;5.07;;
22737;SDS011;11536;50.860;4.286;2022-09-29T04:00:58;12.32;;;4.97;;
22737;SDS011;11536;50.860;4.286;2022-09-29T04:03:24;8.88;;;4.78;;
22737;SDS011;11536;50.860;4.286;2022-09-29T04:05:50;10.55;;;4.72;;
22737;SDS011;11536;50.860;4.286;2022-09-29T04:08:15;8.70;;;5.00;;
22737;SDS011;11536;50.860;4.286;2022-09-29T04:10:41;9.25;;;4.68;;
22737;SDS011;11536;50.860;4.286;2022-09-29T04:13:07;9.13;;;4.53;;
22737;SDS011;11536;50.860;4.286;2022-09-29T04:15:33;11.07;;;4.45;;
22737;SDS011;11536;50.860;4.286;2022-09-29T04:17:59;9.60;;;4.65;;
22737;SDS011;11536;50.860;4.286;2022-09-29T04:20:25;7.88;;;4.78;;
22737;SDS011;11536;50.860;4.286;2022-09-29T04:22:51;9.38;;;4.90;;
22737;SDS011;11536;50.860;4.286;2022-09-29T04:25:17;9.15;;;5.05;;
22737;SDS011;11536;50.860;4.286;2022-09-29T04:27:43;11.00;;;4.90;;
22737;SDS011;11536;50.860;4.286;2022-09-29T04:30:08;10.85;;;5.30;;
22737;SDS011;11536;50.860;4.286;2022-09-29T04:32:35;10.10;;;4.90;;
22737;SDS011;11536;50.860;4.286;2022-09-29T04:35:00;8.98;;;4.43;;
22737;SDS011;11536;50.860;4.286;2022-09-29T04:37:26;9.20;;;4.90;;
22737;SDS011;11536;50.860;4.286;2022-09-29T04:39:52;11.60;;;5.32;;
22737;SDS011;11536;50.860;4.286;2022-09-29T04:42:18;12.10;;;5.18;;
22737;SDS011;11536;50.860;4.286;2022-09-29T04:44:44;9.50;;;5.07;;
22737;SDS011;11536;50.860;4.286;2022-09-29T04:47:10;9.68;;;4.50;;
22737;SDS011;11536;50.860;4.286;2022-09-29T04:49:36;10.95;;;4.80;;
22737;SDS011;11536;50.860;4.286;2022-09-29T04:52:02;11.30;;;5.10;;
22737;SDS011;11536;50.860;4.286;2022-09-29T04:54:31;10.15;;;5.20;;
22737;SDS011;11536;50.860;4.286;2022-09-29T04:56:58;9.15;;;4.93;;
22737;SDS011;11536;50.860;4.286;2022-09-29T04:59:25;11.68;;;4.50;;
22737;SDS011;11536;50.860;4.286;2022-09-29T05:01:53;13.48;;;4.95;;
22737;SDS011;11536;50.860;4.286;2022-09-29T05:04:19;10.20;;;4.95;;
22737;SDS011;11536;50.860;4.286;2022-09-29T05:06:45;7.75;;;4.53;;
22737;SDS011;11536;50.860;4.286;2022-09-29T05:09:11;12.25;;;5.32;;
22737;SDS011;11536;50.860;4.286;2022-09-29T05:11:37;12.30;;;5.35;;
22737;SDS011;11536;50.860;4.286;2022-09-29T05:14:02;9.23;;;4.55;;
22737;SDS011;11536;50.860;4.286;2022-09-29T05:16:28;8.15;;;4.88;;
22737;SDS011;11536;50.860;4.286;2022-09-29T05:18:54;13.07;;;4.97;;
22737;SDS011;11536;50.860;4.286;2022-09-29T05:21:20;9.90;;;4.32;;
22737;SDS011;11536;50.860;4.286;2022-09-29T05:23:46;8.38;;;4.40;;
22737;SDS011;11536;50.860;4.286;2022-09-29T05:26:11;10.15;;;4.65;;
22737;SDS011;11536;50.860;4.286;2022-09-29T05:28:38;11.15;;;4.80;;
22737;SDS011;11536;50.860;4.286;2022-09-29T05:31:08;11.98;;;4.82;;
22737;SDS011;11536;50.860;4.286;2022-09-29T05:33:34;12.07;;;5.30;;
22737;SDS011;11536;50.860;4.286;2022-09-29T05:36:03;14.23;;;5.50;;
22737;SDS011;11536;50.860;4.286;2022-09-29T05:38:31;11.15;;;5.30;;
22737;SDS011;11536;50.860;4.286;2022-09-29T05:40:57;10.40;;;5.15;;
22737;SDS011;11536;50.860;4.286;2022-09-29T05:43:27;10.38;;;5.05;;
22737;SDS011;11536;50.860;4.286;2022-09-29T05:45:59;10.52;;;4.63;;
22737;SDS011;11536;50.860;4.286;2022-09-29T05:48:28;10.63;;;4.78;;
22737;SDS011;11536;50.860;4.286;2022-09-29T05:50:57;8.90;;;4.85;;
22737;SDS011;11536;50.860;4.286;2022-09-29T05:53:24;9.95;;;4.68;;
22737;SDS011;11536;50.860;4.286;2022-09-29T05:55:50;11.65;;;5.25;;
22737;SDS011;11536;50.860;4.286;2022-09-29T05:58:16;12.02;;;5.38;;
22737;SDS011;11536;50.860;4.286;2022-09-29T06:00:42;10.75;;;4.80;;
22737;SDS011;11536;50.860;4.286;2022-09-29T06:03:07;10.25;;;5.40;;
22737;SDS011;11536;50.860;4.286;2022-09-29T06:05:36;8.45;;;4.68;;
22737;SDS011;11536;50.860;4.286;2022-09-29T06:08:02;9.02;;;4.65;;
22737;SDS011;11536;50.860;4.286;2022-09-29T06:10:28;11.15;;;5.15;;
22737;SDS011;11536;50.860;4.286;2022-09-29T06:12:54;10.30;;;5.15;;
22737;SDS011;11536;50.860;4.286;2022-09-29T06:15:21;9.80;;;5.18;;
22737;SDS011;11536;50.860;4.286;2022-09-29T06:17:47;12.25;;;5.57;;
22737;SDS011;11536;50.860;4.286;2022-09-29T06:20:18;10.35;;;5.15;;
22737;SDS011;11536;50.860;4.286;2022-09-29T06:22:44;11.80;;;6.20;;
22737;SDS011;11536;50.860;4.286;2022-09-29T06:25:09;10.02;;;5.50;;
22737;SDS011;11536;50.860;4.286;2022-09-29T06:27:35;9.57;;;5.57;;
22737;SDS011;11536;50.860;4.286;2022-09-29T06:30:01;12.45;;;5.55;;
22737;SDS011;11536;50.860;4.286;2022-09-29T06:32:26;12.27;;;5.43;;
22737;SDS011;11536;50.860;4.286;2022-09-29T06:34:52;11.10;;;5.78;;
22737;SDS011;11536;50.860;4.286;2022-09-29T06:37:36;12.85;;;5.63;;
22737;SDS011;11536;50.860;4.286;2022-09-29T06:40:04;13.10;;;5.35;;
22737;SDS011;11536;50.860;4.286;2022-09-29T06:42:32;11.57;;;6.07;;
22737;SDS011;11536;50.860;4.286;2022-09-29T06:44:58;12.73;;;5.88;;
22737;SDS011;11536;50.860;4.286;2022-09-29T06:47:24;9.13;;;5.47;;
22737;SDS011;11536;50.860;4.286;2022-09-29T06:49:50;8.98;;;5.03;;
22737;SDS011;11536;50.860;4.286;2022-09-29T06:52:15;9.18;;;5.63;;
22737;SDS011;11536;50.860;4.286;2022-09-29T06:54:41;11.48;;;5.60;;
22737;SDS011;11536;50.860;4.286;2022-09-29T06:57:07;15.02;;;5.70;;
22737;SDS011;11536;50.860;4.286;2022-09-29T06:59:34;13.23;;;5.70;;
22737;SDS011;11536;50.860;4.286;2022-09-29T07:02:05;12.68;;;5.45;;
22737;SDS011;11536;50.860;4.286;2022-09-29T07:04:30;10.88;;;4.90;;
22737;SDS011;11536;50.860;4.286;2022-09-29T07:06:56;12.38;;;5.25;;
22737;SDS011;11536;50.860;4.286;2022-09-29T07:09:21;9.68;;;4.78;;
22737;SDS011;11536;50.860;4.286;2022-09-29T07:11:48;10.90;;;4.72;;
22737;SDS011;11536;50.860;4.286;2022-09-29T07:14:15;11.65;;;4.90;;
22737;SDS011;11536;50.860;4.286;2022-09-29T07:16:42;10.68;;;5.55;;
22737;SDS011;11536;50.860;4.286;2022-09-29T07:19:08;11.32;;;5.35;;
22737;SDS011;11536;50.860;4.286;2022-09-29T07:21:34;12.73;;;4.93;;
22737;SDS011;11536;50.860;4.286;2022-09-29T07:24:00;12.27;;;5.88;;
22737;SDS011;11536;50.860;4.286;2022-09-29T07:26:26;11.50;;;5.72;;
22737;SDS011;11536;50.860;4.286;2022-09-29T07:28:52;12.38;;;5.15;;
22737;SDS011;11536;50.860;4.286;2022-09-29T07:31:18;11.57;;;5.45;;
22737;SDS011;11536;50.860;4.286;2022-09-29T07:33:45;12.80;;;5.22;;
22737;SDS011;11536;50.860;4.286;2022-09-29T07:36:13;10.43;;;5.22;;
22737;SDS011;11536;50.860;4.286;2022-09-29T07:38:39;11.73;;;4.95;;
22737;SDS011;11536;50.860;4.286;2022-09-29T07:41:07;10.98;;;4.40;;
22737;SDS011;11536;50.860;4.286;2022-09-29T07:43:35;12.20;;;5.38;;
22737;SDS011;11536;50.860;4.286;2022-09-29T07:46:01;11.38;;;5.18;;
22737;SDS011;11536;50.860;4.286;2022-09-29T07:48:28;10.82;;;5.43;;
22737;SDS011;11536;50.860;4.286;2022-09-29T07:51:27;13.68;;;5.28;;
22737;SDS011;11536;50.860;4.286;2022-09-29T07:53:46;10.23;;;4.88;;
22737;SDS011;11536;50.860;4.286;2022-09-29T07:56:19;10.32;;;5.55;;
22737;SDS011;11536;50.860;4.286;2022-09-29T07:58:46;12.20;;;5.60;;
22737;SDS011;11536;50.860;4.286;2022-09-29T08:01:16;11.63;;;5.25;;
22737;SDS011;11536;50.860;4.286;2022-09-29T08:03:43;13.73;;;5.63;;
22737;SDS011;11536;50.860;4.286;2022-09-29T08:06:14;13.32;;;5.68;;
22737;SDS011;11536;50.860;4.286;2022-09-29T08:08:40;12.55;;;5.60;;
22737;SDS011;11536;50.860;4.286;2022-09-29T08:11:07;13.95;;;5.70;;
22737;SDS011;11536;50.860;4.286;2022-09-29T08:13:35;10.10;;;5.55;;
22737;SDS011;11536;50.860;4.286;2022-09-29T08:16:02;13.15;;;5.90;;
22737;SDS011;11536;50.860;4.286;2022-09-29T08:18:30;14.18;;;5.55;;
22737;SDS011;11536;50.860;4.286;2022-09-29T08:20:57;11.70;;;5.95;;
22737;SDS011;11536;50.860;4.286;2022-09-29T08:23:23;11.45;;;5.28;;
22737;SDS011;11536;50.860;4.286;2022-09-29T08:26:12;9.45;;;5.15;;
22737;SDS011;11536;50.860;4.286;2022-09-29T08:28:39;11.98;;;5.38;;
22737;SDS011;11536;50.860;4.286;2022-09-29T08:31:06;10.35;;;5.90;;
22737;SDS011;11536;50.860;4.286;2022-09-29T08:33:37;14.25;;;6.60;;
22737;SDS011;11536;50.860;4.286;2022-09-29T08:36:03;10.48;;;5.85;;
22737;SDS011;11536;50.860;4.286;2022-09-29T08:38:39;10.65;;;5.35;;
22737;SDS011;11536;50.860;4.286;2022-09-29T08:47:36;12.18;;;5.00;;
22737;SDS011;11536;50.860;4.286;2022-09-29T08:50:47;9.65;;;4.75;;
22737;SDS011;11536;50.860;4.286;2022-09-29T08:52:57;7.65;;;3.78;;
22737;SDS011;11536;50.860;4.286;2022-09-29T08:58:19;7.60;;;3.90;;
22737;SDS011;11536;50.860;4.286;2022-09-29T09:01:20;10.18;;;3.42;;
22737;SDS011;11536;50.860;4.286;2022-09-29T09:04:08;7.43;;;4.13;;
22737;SDS011;11536;50.860;4.286;2022-09-29T09:17:02;9.52;;;4.43;;
22737;SDS011;11536;50.860;4.286;2022-09-29T09:22:06;9.25;;;3.97;;
22737;SDS011;11536;50.860;4.286;2022-09-29T09:27:35;11.27;;;3.90;;
22737;SDS011;11536;50.860;4.286;2022-09-29T09:30:05;12.20;;;4.35;;
22737;SDS011;11536;50.860;4.286;2022-09-29T09:32:39;8.80;;;4.32;;
22737;SDS011;11536;50.860;4.286;2022-09-29T09:37:52;9.15;;;3.85;;
22737;SDS011;11536;50.860;4.286;2022-09-29T09:40:22;9.00;;;3.67;;
22737;SDS011;11536;50.860;4.286;2022-09-29T09:42:51;6.63;;;3.85;;
22737;SDS011;11536;50.860;4.286;2022-09-29T09:47:54;8.07;;;3.65;;
22737;SDS011;11536;50.860;4.286;2022-09-29T09:50:26;8.48;;;3.85;;
22737;SDS011;11536;50.860;4.286;2022-09-29T09:53:35;8.68;;;3.03;;
22737;SDS011;11536;50.860;4.286;2022-09-29T10:01:39;6.93;;;3.00;;
22737;SDS011;11536;50.860;4.286;2022-09-29T10:04:05;8.20;;;2.95;;
22737;SDS011;11536;50.860;4.286;2022-09-29T10:06:35;9.75;;;3.40;;
22737;SDS011;11536;50.860;4.286;2022-09-29T10:09:01;8.05;;;3.13;;
22737;SDS011;11536;50.860;4.286;2022-09-29T10:11:27;5.63;;;2.70;;
22737;SDS011;11536;50.860;4.286;2022-09-29T10:16:52;8.60;;;2.97;;
22737;SDS011;11536;50.860;4.286;2022-09-29T10:19:23;6.20;;;3.03;;
22737;SDS011;11536;50.860;4.286;2022-09-29T10:22:17;7.13;;;2.60;;
22737;SDS011;11536;50.860;4.286;2022-09-29T10:24:43;6.38;;;2.03;;
22737;SDS011;11536;50.860;4.286;2022-09-29T10:27:09;5.55;;;2.33;;
22737;SDS011;11536;50.860;4.286;2022-09-29T10:29:41;4.65;;;1.90;;
22737;SDS011;11536;50.860;4.286;2022-09-29T10:34:43;5.85;;;2.25;;
22737;SDS011;11536;50.860;4.286;2022-09-29T10:37:25;5.25;;;1.80;;
22737;SDS011;11536;50.860;4.286;2022-09-29T10:42:37;3.75;;;1.70;;
22737;SDS011;11536;50.860;4.286;2022-09-29T10:45:11;5.78;;;2.08;;
22737;SDS011;11536;50.860;4.286;2022-09-29T10:47:38;4.93;;;1.58;;
22737;SDS011;11536;50.860;4.286;2022-09-29T10:50:15;4.57;;;1.33;;
22737;SDS011;11536;50.860;4.286;2022-09-29T10:52:54;5.22;;;1.40;;
22737;SDS011;11536;50.860;4.286;2022-09-29T10:55:28;2.88;;;1.33;;
22737;SDS011;11536;50.860;4.286;2022-09-29T10:57:57;5.22;;;1.80;;
22737;SDS011;11536;50.860;4.286;2022-09-29T11:00:28;4.32;;;2.08;;
22737;SDS011;11536;50.860;4.286;2022-09-29T11:03:15;4.78;;;2.35;;
22737;SDS011;11536;50.860;4.286;2022-09-29T11:05:52;6.28;;;2.20;;
22737;SDS011;11536;50.860;4.286;2022-09-29T11:08:18;6.35;;;2.00;;
22737;SDS011;11536;50.860;4.286;2022-09-29T11:10:49;4.85;;;2.15;;
22737;SDS011;11536;50.860;4.286;2022-09-29T11:13:42;5.03;;;2.17;;
22737;SDS011;11536;50.860;4.286;2022-09-29T11:16:12;4.30;;;1.65;;
22737;SDS011;11536;50.860;4.286;2022-09-29T11:18:39;5.78;;;1.80;;
22737;SDS011;11536;50.860;4.286;2022-09-29T11:28:49;4.78;;;1.80;;
22737;SDS011;11536;50.860;4.286;2022-09-29T11:34:24;4.45;;;1.65;;
22737;SDS011;11536;50.860;4.286;2022-09-29T11:37:08;3.47;;;1.40;;
22737;SDS011;11536;50.860;4.286;2022-09-29T11:44:58;4.97;;;1.40;;
22737;SDS011;11536;50.860;4.286;2022-09-29T11:52:53;4.10;;;1.30;;
22737;SDS011;11536;50.860;4.286;2022-09-29T11:55:56;4.07;;;1.17;;
22737;SDS011;11536;50.860;4.286;2022-09-29T11:58:30;3.00;;;0.95;;
22737;SDS011;11536;50.860;4.286;2022-09-29T12:12:08;5.35;;;0.80;;
22737;SDS011;11536;50.860;4.286;2022-09-29T12:17:55;2.90;;;0.80;;
22737;SDS011;11536;50.860;4.286;2022-09-29T12:20:30;3.20;;;0.80;;
22737;SDS011;11536;50.860;4.286;2022-09-29T12:23:00;4.03;;;0.90;;
22737;SDS011;11536;50.860;4.286;2022-09-29T12:25:30;2.42;;;0.70;;
22737;SDS011;11536;50.860;4.286;2022-09-29T12:28:00;4.13;;;0.73;;
22737;SDS011;11536;50.860;4.286;2022-09-29T12:30:40;2.22;;;0.68;;
22737;SDS011;11536;50.860;4.286;2022-09-29T12:33:22;3.28;;;0.68;;
22737;SDS011;11536;50.860;4.286;2022-09-29T12:36:15;2.15;;;0.80;;
22737;SDS011;11536;50.860;4.286;2022-09-29T12:45:06;2.28;;;0.70;;
22737;SDS011;11536;50.860;4.286;2022-09-29T12:51:00;4.63;;;0.82;;
22737;SDS011;11536;50.860;4.286;2022-09-29T12:53:33;3.47;;;0.90;;
22737;SDS011;11536;50.860;4.286;2022-09-29T12:56:13;2.75;;;0.88;;
22737;SDS011;11536;50.860;4.286;2022-09-29T13:07:16;2.85;;;0.93;;
22737;SDS011;11536;50.860;4.286;2022-09-29T13:10:23;5.50;;;1.00;;
22737;SDS011;11536;50.860;4.286;2022-09-29T13:21:00;2.78;;;0.80;;
22737;SDS011;11536;50.860;4.286;2022-09-29T13:26:32;1.75;;;0.70;;
22737;SDS011;11536;50.860;4.286;2022-09-29T13:29:26;2.90;;;0.90;;
22737;SDS011;11536;50.860;4.286;2022-09-29T13:31:54;5.38;;;0.82;;
22737;SDS011;11536;50.860;4.286;2022-09-29T13:34:28;3.65;;;0.80;;
22737;SDS011;11536;50.860;4.286;2022-09-29T13:37:04;4.60;;;0.70;;
22737;SDS011;11536;50.860;4.286;2022-09-29T13:39:32;1.60;;;0.60;;
22737;SDS011;11536;50.860;4.286;2022-09-29T13:42:24;1.50;;;0.60;;
22737;SDS011;11536;50.860;4.286;2022-09-29T13:47:49;4.90;;;1.10;;
22737;SDS011;11536;50.860;4.286;2022-09-29T14:00:52;3.53;;;0.63;;
22737;SDS011;11536;50.860;4.286;2022-09-29T14:03:38;4.50;;;0.90;;
22737;SDS011;11536;50.860;4.286;2022-09-29T14:06:17;2.47;;;0.77;;
22737;SDS011;11536;50.860;4.286;2022-09-29T14:09:06;5.35;;;1.00;;
22737;SDS011;11536;50.860;4.286;2022-09-29T14:11:44;3.78;;;0.75;;
22737;SDS011;11536;50.860;4.286;2022-09-29T14:19:35;3.15;;;0.70;;
22737;SDS011;11536;50.860;4.286;2022-09-29T14:24:53;2.47;;;0.55;;
22737;SDS011;11536;50.860;4.286;2022-09-29T14:27:43;6.05;;;1.25;;
22737;SDS011;11536;50.860;4.286;2022-09-29T14:38:31;4.22;;;0.80;;
22737;SDS011;11536;50.860;4.286;2022-09-29T14:43:41;2.90;;;1.02;;
22737;SDS011;11536;50.860;4.286;2022-09-29T14:49:53;2.67;;;1.00;;
22737;SDS011;11536;50.860;4.286;2022-09-29T14:58:27;3.50;;;0.70;;
22737;SDS011;11536;50.860;4.286;2022-09-29T15:03:31;3.97;;;1.00;;
22737;SDS011;11536;50.860;4.286;2022-09-29T15:06:15;2.83;;;1.02;;
22737;SDS011;11536;50.860;4.286;2022-09-29T15:08:55;3.38;;;1.35;;
22737;SDS011;11536;50.860;4.286;2022-09-29T15:11:33;4.45;;;1.50;;
22737;SDS011;11536;50.860;4.286;2022-09-29T15:25:23;3.30;;;1.10;;
22737;SDS011;11536;50.860;4.286;2022-09-29T15:28:03;3.60;;;1.30;;
22737;SDS011;11536;50.860;4.286;2022-09-29T15:30:39;5.85;;;1.23;;
22737;SDS011;11536;50.860;4.286;2022-09-29T15:35:47;4.85;;;1.48;;
22737;SDS011;11536;50.860;4.286;2022-09-29T15:40:57;4.20;;;1.60;;
22737;SDS011;11536;50.860;4.286;2022-09-29T15:43:28;7.50;;;1.60;;
22737;SDS011;11536;50.860;4.286;2022-09-29T15:46:11;6.22;;;1.52;;
22737;SDS011;11536;50.860;4.286;2022-09-29T15:48:43;6.55;;;1.40;;
22737;SDS011;11536;50.860;4.286;2022-09-29T15:51:27;4.50;;;1.60;;
22737;SDS011;11536;50.860;4.286;2022-09-29T15:53:53;4.10;;;1.50;;
22737;SDS011;11536;50.860;4.286;2022-09-29T15:56:19;3.05;;;1.42;;
22737;SDS011;11536;50.860;4.286;2022-09-29T15:58:46;4.90;;;1.42;;
22737;SDS011;11536;50.860;4.286;2022-09-29T16:01:13;4.65;;;1.55;;
22737;SDS011;11536;50.860;4.286;2022-09-29T16:03:51;4.70;;;1.67;;
22737;SDS011;11536;50.860;4.286;2022-09-29T16:06:27;3.60;;;1.30;;
22737;SDS011;11536;50.860;4.286;2022-09-29T16:08:56;4.57;;;1.60;;
22737;SDS011;11536;50.860;4.286;2022-09-29T16:11:35;4.35;;;1.50;;
22737;SDS011;11536;50.860;4.286;2022-09-29T16:14:09;6.57;;;1.70;;
22737;SDS011;11536;50.860;4.286;2022-09-29T16:16:44;3.90;;;1.52;;
22737;SDS011;11536;50.860;4.286;2022-09-29T16:19:14;7.32;;;1.42;;
22737;SDS011;11536;50.860;4.286;2022-09-29T16:21:48;13.77;;;2.00;;
22737;SDS011;11536;50.860;4.286;2022-09-29T16:24:17;4.22;;;1.50;;
22737;SDS011;11536;50.860;4.286;2022-09-29T16:26:45;7.10;;;2.60;;
22737;SDS011;11536;50.860;4.286;2022-09-29T16:31:58;6.28;;;2.22;;
22737;SDS011;11536;50.860;4.286;2022-09-29T16:34:44;5.90;;;2.30;;
22737;SDS011;11536;50.860;4.286;2022-09-29T16:37:16;6.32;;;2.17;;
22737;SDS011;11536;50.860;4.286;2022-09-29T16:39:46;4.70;;;1.58;;
22737;SDS011;11536;50.860;4.286;2022-09-29T16:42:17;4.38;;;1.60;;
22737;SDS011;11536;50.860;4.286;2022-09-29T16:44:49;3.88;;;1.20;;
22737;SDS011;11536;50.860;4.286;2022-09-29T16:47:37;3.70;;;1.40;;
22737;SDS011;11536;50.860;4.286;2022-09-29T16:50:12;3.85;;;1.20;;
22737;SDS011;11536;50.860;4.286;2022-09-29T16:55:17;4.50;;;1.75;;
22737;SDS011;11536;50.860;4.286;2022-09-29T16:58:11;3.95;;;1.20;;
22737;SDS011;11536;50.860;4.286;2022-09-29T17:00:37;3.10;;;1.10;;
22737;SDS011;11536;50.860;4.286;2022-09-29T17:03:03;3.15;;;1.38;;
22737;SDS011;11536;50.860;4.286;2022-09-29T17:05:36;3.17;;;1.38;;
22737;SDS011;11536;50.860;4.286;2022-09-29T17:08:09;5.50;;;2.10;;
22737;SDS011;11536;50.860;4.286;2022-09-29T17:10:52;6.88;;;3.05;;
22737;SDS011;11536;50.860;4.286;2022-09-29T17:13:20;5.13;;;1.60;;
22737;SDS011;11536;50.860;4.286;2022-09-29T17:15:48;3.97;;;1.35;;
22737;SDS011;11536;50.860;4.286;2022-09-29T17:18:16;3.28;;;1.05;;
22737;SDS011;11536;50.860;4.286;2022-09-29T17:20:42;4.00;;;1.10;;
22737;SDS011;11536;50.860;4.286;2022-09-29T17:23:08;4.68;;;1.40;;
22737;SDS011;11536;50.860;4.286;2022-09-29T17:25:39;5.63;;;1.48;;
22737;SDS011;11536;50.860;4.286;2022-09-29T17:28:12;4.30;;;1.40;;
22737;SDS011;11536;50.860;4.286;2022-09-29T17:30:44;6.43;;;1.88;;
22737;SDS011;11536;50.860;4.286;2022-09-29T17:33:15;7.35;;;2.15;;
22737;SDS011;11536;50.860;4.286;2022-09-29T17:35:46;5.88;;;2.15;;
22737;SDS011;11536;50.860;4.286;2022-09-29T17:38:15;7.20;;;2.70;;
22737;SDS011;11536;50.860;4.286;2022-09-29T17:41:00;5.45;;;1.83;;
22737;SDS011;11536;50.860;4.286;2022-09-29T17:43:27;5.97;;;1.52;;
22737;SDS011;11536;50.860;4.286;2022-09-29T17:45:55;4.55;;;1.65;;
22737;SDS011;11536;50.860;4.286;2022-09-29T17:48:26;5.20;;;1.90;;
22737;SDS011;11536;50.860;4.286;2022-09-29T17:50:53;5.90;;;1.90;;
22737;SDS011;11536;50.860;4.286;2022-09-29T17:53:21;7.88;;;1.50;;
22737;SDS011;11536;50.860;4.286;2022-09-29T17:55:48;3.25;;;1.30;;
22737;SDS011;11536;50.860;4.286;2022-09-29T17:58:19;3.70;;;1.30;;
22737;SDS011;11536;50.860;4.286;2022-09-29T18:00:46;3.30;;;1.20;;
22737;SDS011;11536;50.860;4.286;2022-09-29T18:03:13;3.08;;;1.20;;
22737;SDS011;11536;50.860;4.286;2022-09-29T18:05:42;3.08;;;1.02;;
22737;SDS011;11536;50.860;4.286;2022-09-29T18:08:10;2.28;;;1.00;;
22737;SDS011;11536;50.860;4.286;2022-09-29T18:10:39;4.78;;;1.25;;
22737;SDS011;11536;50.860;4.286;2022-09-29T18:13:12;4.10;;;1.48;;
22737;SDS011;11536;50.860;4.286;2022-09-29T18:15:38;4.15;;;1.58;;
22737;SDS011;11536;50.860;4.286;2022-09-29T18:18:04;5.55;;;1.67;;
22737;SDS011;11536;50.860;4.286;2022-09-29T18:20:32;4.90;;;1.60;;
22737;SDS011;11536;50.860;4.286;2022-09-29T18:23:00;4.43;;;1.70;;
22737;SDS011;11536;50.860;4.286;2022-09-29T18:25:28;3.55;;;1.40;;
22737;SDS011;11536;50.860;4.286;2022-09-29T18:27:55;4.00;;;1.58;;
22737;SDS011;11536;50.860;4.286;2022-09-29T18:32:52;4.68;;;2.00;;
22737;SDS011;11536;50.860;4.286;2022-09-29T18:35:23;6.57;;;1.63;;
22737;SDS011;11536;50.860;4.286;2022-09-29T18:37:50;7.22;;;3.42;;
22737;SDS011;11536;50.860;4.286;2022-09-29T18:40:16;10.25;;;5.57;;
22737;SDS011;11536;50.860;4.286;2022-09-29T18:42:46;14.15;;;7.18;;
22737;SDS011;11536;50.860;4.286;2022-09-29T18:45:16;11.82;;;7.68;;
22737;SDS011;11536;50.860;4.286;2022-09-29T18:47:47;13.07;;;7.70;;
22737;SDS011;11536;50.860;4.286;2022-09-29T18:50:15;9.93;;;5.80;;
22737;SDS011;11536;50.860;4.286;2022-09-29T18:52:49;12.13;;;4.78;;